sensor_id;sensor_type;location;lat;lon;timestamp;temperature;humidity
6556;DHT22;3311;48.32423000;14.29074500;2023-07-13T00:01:58;24.90;83.10
6556;DHT22;3311;48.32423000;14.29074500;2023-07-13T00:04:26;24.90;83.00
6556;DHT22;3311;48.32423000;14.29074500;2023-07-13T00:06:53;24.80;83.40
6556;DHT22;3311;48.32423000;14.29074500;2023-07-13T00:09:21;24.20;84.90
6556;DHT22;3311;48.32423000;14.29074500;2023-07-13T00:11:51;23.80;86.30
6556;DHT22;3311;48.32423000;14.29074500;2023-07-13T00:14:19;23.50;87.10
6556;DHT22;3311;48.32423000;14.29074500;2023-07-13T00:16:48;23.60;87.40
6556;DHT22;3311;48.32423000;14.29074500;2023-07-13T00:19:16;24.10;85.70
6556;DHT22;3311;48.32423000;14.29074500;2023-07-13T00:21:43;24.60;84.70
6556;DHT22;3311;48.32423000;14.29074500;2023-07-13T00:24:12;24.80;83.80
6556;DHT22;3311;48.32423000;14.29074500;2023-07-13T00:26:41;24.80;83.60
6556;DHT22;3311;48.32423000;14.29074500;2023-07-13T00:29:10;24.80;83.60
6556;DHT22;3311;48.32423000;14.29074500;2023-07-13T00:31:38;24.60;84.30
6556;DHT22;3311;48.32423000;14.29074500;2023-07-13T00:34:06;24.60;83.80
6556;DHT22;3311;48.32423000;14.29074500;2023-07-13T00:36:33;24.00;85.50
6556;DHT22;3311;48.32423000;14.29074500;2023-07-13T00:39:01;23.70;86.70
6556;DHT22;3311;48.32423000;14.29074500;2023-07-13T00:41:30;24.00;87.00
6556;DHT22;3311;48.32423000;14.29074500;2023-07-13T00:43:57;23.90;86.60
6556;DHT22;3311;48.32423000;14.29074500;2023-07-13T00:46:27;24.10;86.20
6556;DHT22;3311;48.32423000;14.29074500;2023-07-13T00:48:59;24.40;85.30
6556;DHT22;3311;48.32423000;14.29074500;2023-07-13T00:51:32;24.60;84.40
6556;DHT22;3311;48.32423000;14.29074500;2023-07-13T00:54:04;24.70;83.90
6556;DHT22;3311;48.32423000;14.29074500;2023-07-13T00:56:33;24.70;83.70
6556;DHT22;3311;48.32423000;14.29074500;2023-07-13T00:59:03;24.70;83.50
6556;DHT22;3311;48.32423000;14.29074500;2023-07-13T01:01:32;24.70;83.30
6556;DHT22;3311;48.32423000;14.29074500;2023-07-13T01:03:59;24.30;84.90
6556;DHT22;3311;48.32423000;14.29074500;2023-07-13T01:06:27;24.60;84.20
6556;DHT22;3311;48.32423000;14.29074500;2023-07-13T01:08:57;24.90;83.50
6556;DHT22;3311;48.32423000;14.29074500;2023-07-13T01:11:25;25.10;83.00
6556;DHT22;3311;48.32423000;14.29074500;2023-07-13T01:13:53;25.20;82.60
6556;DHT22;3311;48.32423000;14.29074500;2023-07-13T01:16:25;25.20;82.30
6556;DHT22;3311;48.32423000;14.29074500;2023-07-13T01:18:53;25.30;82.20
6556;DHT22;3311;48.32423000;14.29074500;2023-07-13T01:21:21;25.20;82.40
6556;DHT22;3311;48.32423000;14.29074500;2023-07-13T01:23:48;25.10;82.80
6556;DHT22;3311;48.32423000;14.29074500;2023-07-13T01:26:16;25.00;83.40
6556;DHT22;3311;48.32423000;14.29074500;2023-07-13T01:28:44;24.80;83.80
6556;DHT22;3311;48.32423000;14.29074500;2023-07-13T01:31:11;24.60;85.10
6556;DHT22;3311;48.32423000;14.29074500;2023-07-13T01:33:40;24.60;85.10
6556;DHT22;3311;48.32423000;14.29074500;2023-07-13T01:36:09;24.70;84.40
6556;DHT22;3311;48.32423000;14.29074500;2023-07-13T01:38:38;24.80;84.20
6556;DHT22;3311;48.32423000;14.29074500;2023-07-13T01:41:05;24.70;84.10
6556;DHT22;3311;48.32423000;14.29074500;2023-07-13T01:43:33;24.70;84.30
6556;DHT22;3311;48.32423000;14.29074500;2023-07-13T01:46:00;24.70;84.30
6556;DHT22;3311;48.32423000;14.29074500;2023-07-13T01:48:27;24.20;85.90
6556;DHT22;3311;48.32423000;14.29074500;2023-07-13T01:50:54;24.10;86.50
6556;DHT22;3311;48.32423000;14.29074500;2023-07-13T01:53:21;23.80;87.50
6556;DHT22;3311;48.32423000;14.29074500;2023-07-13T01:55:50;23.50;89.20
6556;DHT22;3311;48.32423000;14.29074500;2023-07-13T01:58:17;23.90;88.10
6556;DHT22;3311;48.32423000;14.29074500;2023-07-13T02:00:44;24.00;87.40
6556;DHT22;3311;48.32423000;14.29074500;2023-07-13T02:03:11;24.30;86.30
6556;DHT22;3311;48.32423000;14.29074500;2023-07-13T02:05:43;24.50;85.70
6556;DHT22;3311;48.32423000;14.29074500;2023-07-13T02:08:10;24.80;84.70
6556;DHT22;3311;48.32423000;14.29074500;2023-07-13T02:10:38;24.90;84.80
6556;DHT22;3311;48.32423000;14.29074500;2023-07-13T02:13:07;25.00;84.00
6556;DHT22;3311;48.32423000;14.29074500;2023-07-13T02:15:38;25.00;83.50
6556;DHT22;3311;48.32423000;14.29074500;2023-07-13T02:18:05;25.10;83.30
6556;DHT22;3311;48.32423000;14.29074500;2023-07-13T02:20:33;24.90;83.80
6556;DHT22;3311;48.32423000;14.29074500;2023-07-13T02:23:00;25.00;83.80
6556;DHT22;3311;48.32423000;14.29074500;2023-07-13T02:25:27;25.00;83.50
6556;DHT22;3311;48.32423000;14.29074500;2023-07-13T02:27:55;25.00;83.80
6556;DHT22;3311;48.32423000;14.29074500;2023-07-13T02:30:23;24.90;84.00
6556;DHT22;3311;48.32423000;14.29074500;2023-07-13T02:32:51;24.80;84.00
6556;DHT22;3311;48.32423000;14.29074500;2023-07-13T02:35:18;25.00;83.90
6556;DHT22;3311;48.32423000;14.29074500;2023-07-13T02:37:45;24.90;83.90
6556;DHT22;3311;48.32423000;14.29074500;2023-07-13T02:40:12;25.00;83.60
6556;DHT22;3311;48.32423000;14.29074500;2023-07-13T02:42:40;25.00;83.70
6556;DHT22;3311;48.32423000;14.29074500;2023-07-13T02:45:08;24.80;84.20
6556;DHT22;3311;48.32423000;14.29074500;2023-07-13T02:47:37;24.60;85.30
6556;DHT22;3311;48.32423000;14.29074500;2023-07-13T02:50:06;24.70;84.80
6556;DHT22;3311;48.32423000;14.29074500;2023-07-13T02:52:33;24.80;84.50
6556;DHT22;3311;48.32423000;14.29074500;2023-07-13T02:55:00;24.90;84.10
6556;DHT22;3311;48.32423000;14.29074500;2023-07-13T02:57:28;25.00;84.00
6556;DHT22;3311;48.32423000;14.29074500;2023-07-13T02:59:56;25.00;83.70
6556;DHT22;3311;48.32423000;14.29074500;2023-07-13T03:02:23;24.70;84.30
6556;DHT22;3311;48.32423000;14.29074500;2023-07-13T03:04:52;24.70;84.70
6556;DHT22;3311;48.32423000;14.29074500;2023-07-13T03:07:19;24.60;85.10
6556;DHT22;3311;48.32423000;14.29074500;2023-07-13T03:09:46;24.60;85.10
6556;DHT22;3311;48.32423000;14.29074500;2023-07-13T03:12:14;24.70;85.00
6556;DHT22;3311;48.32423000;14.29074500;2023-07-13T03:14:41;24.60;85.20
6556;DHT22;3311;48.32423000;14.29074500;2023-07-13T03:17:08;24.60;85.50
6556;DHT22;3311;48.32423000;14.29074500;2023-07-13T03:19:35;24.50;85.80
6556;DHT22;3311;48.32423000;14.29074500;2023-07-13T03:22:05;24.50;85.80
6556;DHT22;3311;48.32423000;14.29074500;2023-07-13T03:24:33;24.50;85.70
6556;DHT22;3311;48.32423000;14.29074500;2023-07-13T03:27:01;24.60;85.40
6556;DHT22;3311;48.32423000;14.29074500;2023-07-13T03:29:29;24.80;84.90
6556;DHT22;3311;48.32423000;14.29074500;2023-07-13T03:31:56;24.70;85.00
6556;DHT22;3311;48.32423000;14.29074500;2023-07-13T03:34:23;24.70;85.20
6556;DHT22;3311;48.32423000;14.29074500;2023-07-13T03:36:53;24.70;85.30
6556;DHT22;3311;48.32423000;14.29074500;2023-07-13T03:39:22;24.80;84.90
6556;DHT22;3311;48.32423000;14.29074500;2023-07-13T03:41:50;24.80;84.80
6556;DHT22;3311;48.32423000;14.29074500;2023-07-13T03:44:18;24.80;84.60
6556;DHT22;3311;48.32423000;14.29074500;2023-07-13T03:46:45;24.70;84.90
6556;DHT22;3311;48.32423000;14.29074500;2023-07-13T03:49:13;24.60;85.40
6556;DHT22;3311;48.32423000;14.29074500;2023-07-13T03:51:40;24.50;85.70
6556;DHT22;3311;48.32423000;14.29074500;2023-07-13T03:54:07;24.60;85.80
6556;DHT22;3311;48.32423000;14.29074500;2023-07-13T03:56:35;24.60;86.10
6556;DHT22;3311;48.32423000;14.29074500;2023-07-13T03:59:03;24.50;86.20
6556;DHT22;3311;48.32423000;14.29074500;2023-07-13T04:01:30;24.40;86.40
6556;DHT22;3311;48.32423000;14.29074500;2023-07-13T04:03:57;24.50;86.60
6556;DHT22;3311;48.32423000;14.29074500;2023-07-13T04:06:27;24.50;86.10
6556;DHT22;3311;48.32423000;14.29074500;2023-07-13T04:08:56;24.60;86.00
6556;DHT22;3311;48.32423000;14.29074500;2023-07-13T04:11:25;24.60;86.00
6556;DHT22;3311;48.32423000;14.29074500;2023-07-13T04:13:56;24.60;85.80
6556;DHT22;3311;48.32423000;14.29074500;2023-07-13T04:16:23;24.60;85.90
6556;DHT22;3311;48.32423000;14.29074500;2023-07-13T04:18:51;24.70;85.70
6556;DHT22;3311;48.32423000;14.29074500;2023-07-13T04:21:21;24.70;85.50
6556;DHT22;3311;48.32423000;14.29074500;2023-07-13T04:23:48;24.60;86.10
6556;DHT22;3311;48.32423000;14.29074500;2023-07-13T04:26:15;24.60;86.40
6556;DHT22;3311;48.32423000;14.29074500;2023-07-13T04:28:43;24.50;86.40
6556;DHT22;3311;48.32423000;14.29074500;2023-07-13T04:31:12;24.60;86.40
6556;DHT22;3311;48.32423000;14.29074500;2023-07-13T04:33:39;24.60;86.20
6556;DHT22;3311;48.32423000;14.29074500;2023-07-13T04:36:09;24.70;86.00
6556;DHT22;3311;48.32423000;14.29074500;2023-07-13T04:38:36;24.50;86.70
6556;DHT22;3311;48.32423000;14.29074500;2023-07-13T04:41:07;24.50;86.80
6556;DHT22;3311;48.32423000;14.29074500;2023-07-13T04:43:35;24.60;86.60
6556;DHT22;3311;48.32423000;14.29074500;2023-07-13T04:46:04;24.60;86.40
6556;DHT22;3311;48.32423000;14.29074500;2023-07-13T04:48:33;24.70;86.30
6556;DHT22;3311;48.32423000;14.29074500;2023-07-13T04:51:01;24.70;86.10
6556;DHT22;3311;48.32423000;14.29074500;2023-07-13T04:53:29;24.60;86.60
6556;DHT22;3311;48.32423000;14.29074500;2023-07-13T04:55:58;24.60;86.80
6556;DHT22;3311;48.32423000;14.29074500;2023-07-13T04:58:25;24.60;86.60
6556;DHT22;3311;48.32423000;14.29074500;2023-07-13T05:00:53;24.70;86.10
6556;DHT22;3311;48.32423000;14.29074500;2023-07-13T05:03:20;24.80;85.80
6556;DHT22;3311;48.32423000;14.29074500;2023-07-13T05:05:57;25.00;85.90
6556;DHT22;3311;48.32423000;14.29074500;2023-07-13T05:08:24;25.00;85.70
6556;DHT22;3311;48.32423000;14.29074500;2023-07-13T05:10:52;25.00;86.00
6556;DHT22;3311;48.32423000;14.29074500;2023-07-13T05:13:19;25.10;86.20
6556;DHT22;3311;48.32423000;14.29074500;2023-07-13T05:15:48;25.10;86.20
6556;DHT22;3311;48.32423000;14.29074500;2023-07-13T05:18:22;25.20;86.40
6556;DHT22;3311;48.32423000;14.29074500;2023-07-13T05:20:57;25.10;86.20
6556;DHT22;3311;48.32423000;14.29074500;2023-07-13T05:23:25;25.20;86.20
6556;DHT22;3311;48.32423000;14.29074500;2023-07-13T05:25:53;25.20;85.80
6556;DHT22;3311;48.32423000;14.29074500;2023-07-13T05:28:21;25.20;85.50
6556;DHT22;3311;48.32423000;14.29074500;2023-07-13T05:30:49;25.20;85.40
6556;DHT22;3311;48.32423000;14.29074500;2023-07-13T05:33:17;25.20;85.60
6556;DHT22;3311;48.32423000;14.29074500;2023-07-13T05:35:44;25.20;85.30
6556;DHT22;3311;48.32423000;14.29074500;2023-07-13T05:38:13;25.20;85.70
6556;DHT22;3311;48.32423000;14.29074500;2023-07-13T05:40:42;25.20;85.70
6556;DHT22;3311;48.32423000;14.29074500;2023-07-13T05:43:10;25.20;85.60
6556;DHT22;3311;48.32423000;14.29074500;2023-07-13T05:45:37;25.20;85.10
6556;DHT22;3311;48.32423000;14.29074500;2023-07-13T05:48:05;25.20;84.70
6556;DHT22;3311;48.32423000;14.29074500;2023-07-13T05:50:32;25.20;85.00
6556;DHT22;3311;48.32423000;14.29074500;2023-07-13T05:52:59;25.20;84.70
6556;DHT22;3311;48.32423000;14.29074500;2023-07-13T05:55:28;25.20;84.50
6556;DHT22;3311;48.32423000;14.29074500;2023-07-13T05:57:55;25.20;84.60
6556;DHT22;3311;48.32423000;14.29074500;2023-07-13T06:00:23;25.10;84.50
6556;DHT22;3311;48.32423000;14.29074500;2023-07-13T06:02:51;25.10;84.70
6556;DHT22;3311;48.32423000;14.29074500;2023-07-13T06:05:19;25.10;84.80
6556;DHT22;3311;48.32423000;14.29074500;2023-07-13T06:07:46;25.10;84.60
6556;DHT22;3311;48.32423000;14.29074500;2023-07-13T06:10:13;25.10;84.70
6556;DHT22;3311;48.32423000;14.29074500;2023-07-13T06:12:42;25.10;84.70
6556;DHT22;3311;48.32423000;14.29074500;2023-07-13T06:15:09;25.10;84.80
6556;DHT22;3311;48.32423000;14.29074500;2023-07-13T06:17:36;25.10;84.80
6556;DHT22;3311;48.32423000;14.29074500;2023-07-13T06:20:05;25.10;84.70
6556;DHT22;3311;48.32423000;14.29074500;2023-07-13T06:22:33;25.10;84.60
6556;DHT22;3311;48.32423000;14.29074500;2023-07-13T06:25:00;25.10;84.20
6556;DHT22;3311;48.32423000;14.29074500;2023-07-13T06:27:27;25.00;83.80
6556;DHT22;3311;48.32423000;14.29074500;2023-07-13T06:29:56;24.90;83.30
6556;DHT22;3311;48.32423000;14.29074500;2023-07-13T06:32:23;24.90;83.30
6556;DHT22;3311;48.32423000;14.29074500;2023-07-13T06:34:50;24.80;84.20
6556;DHT22;3311;48.32423000;14.29074500;2023-07-13T06:37:19;24.70;84.10
6556;DHT22;3311;48.32423000;14.29074500;2023-07-13T06:39:46;24.60;83.60
6556;DHT22;3311;48.32423000;14.29074500;2023-07-13T06:42:13;24.60;83.70
6556;DHT22;3311;48.32423000;14.29074500;2023-07-13T06:44:41;24.60;84.10
6556;DHT22;3311;48.32423000;14.29074500;2023-07-13T06:47:10;24.60;84.00
6556;DHT22;3311;48.32423000;14.29074500;2023-07-13T06:49:37;24.60;84.40
6556;DHT22;3311;48.32423000;14.29074500;2023-07-13T06:52:05;24.50;84.70
6556;DHT22;3311;48.32423000;14.29074500;2023-07-13T06:54:32;24.50;85.00
6556;DHT22;3311;48.32423000;14.29074500;2023-07-13T06:57:01;24.50;85.10
6556;DHT22;3311;48.32423000;14.29074500;2023-07-13T06:59:28;24.40;85.30
6556;DHT22;3311;48.32423000;14.29074500;2023-07-13T07:01:55;24.40;85.50
6556;DHT22;3311;48.32423000;14.29074500;2023-07-13T07:04:24;24.40;85.20
6556;DHT22;3311;48.32423000;14.29074500;2023-07-13T07:06:51;24.40;85.50
6556;DHT22;3311;48.32423000;14.29074500;2023-07-13T07:09:18;24.40;86.00
6556;DHT22;3311;48.32423000;14.29074500;2023-07-13T07:11:45;24.40;85.90
6556;DHT22;3311;48.32423000;14.29074500;2023-07-13T07:14:12;24.30;86.10
6556;DHT22;3311;48.32423000;14.29074500;2023-07-13T07:16:39;24.30;85.70
6556;DHT22;3311;48.32423000;14.29074500;2023-07-13T07:19:07;24.30;86.20
6556;DHT22;3311;48.32423000;14.29074500;2023-07-13T07:21:36;24.30;86.60
6556;DHT22;3311;48.32423000;14.29074500;2023-07-13T07:24:04;24.40;86.00
6556;DHT22;3311;48.32423000;14.29074500;2023-07-13T07:26:32;24.40;86.10
6556;DHT22;3311;48.32423000;14.29074500;2023-07-13T07:28:59;24.40;86.20
6556;DHT22;3311;48.32423000;14.29074500;2023-07-13T07:31:26;24.40;86.20
6556;DHT22;3311;48.32423000;14.29074500;2023-07-13T07:33:53;24.40;86.40
6556;DHT22;3311;48.32423000;14.29074500;2023-07-13T07:36:21;24.30;85.50
6556;DHT22;3311;48.32423000;14.29074500;2023-07-13T07:38:49;24.30;85.70
6556;DHT22;3311;48.32423000;14.29074500;2023-07-13T07:41:16;24.30;86.10
6556;DHT22;3311;48.32423000;14.29074500;2023-07-13T07:43:44;24.30;86.30
6556;DHT22;3311;48.32423000;14.29074500;2023-07-13T07:46:11;24.30;85.90
6556;DHT22;3311;48.32423000;14.29074500;2023-07-13T07:48:38;24.20;85.50
6556;DHT22;3311;48.32423000;14.29074500;2023-07-13T07:51:05;24.30;86.00
6556;DHT22;3311;48.32423000;14.29074500;2023-07-13T07:53:32;24.40;85.50
6556;DHT22;3311;48.32423000;14.29074500;2023-07-13T07:56:01;24.60;85.50
6556;DHT22;3311;48.32423000;14.29074500;2023-07-13T07:58:28;24.60;84.90
6556;DHT22;3311;48.32423000;14.29074500;2023-07-13T08:01:02;24.70;84.60
6556;DHT22;3311;48.32423000;14.29074500;2023-07-13T08:03:30;24.70;84.50
6556;DHT22;3311;48.32423000;14.29074500;2023-07-13T08:05:57;24.80;84.00
6556;DHT22;3311;48.32423000;14.29074500;2023-07-13T08:08:25;24.90;83.90
6556;DHT22;3311;48.32423000;14.29074500;2023-07-13T08:10:52;24.90;83.90
6556;DHT22;3311;48.32423000;14.29074500;2023-07-13T08:13:21;25.00;83.80
6556;DHT22;3311;48.32423000;14.29074500;2023-07-13T08:15:51;25.00;83.30
6556;DHT22;3311;48.32423000;14.29074500;2023-07-13T08:18:21;25.00;83.40
6556;DHT22;3311;48.32423000;14.29074500;2023-07-13T08:20:48;24.90;83.20
6556;DHT22;3311;48.32423000;14.29074500;2023-07-13T08:23:16;25.00;83.40
6556;DHT22;3311;48.32423000;14.29074500;2023-07-13T08:25:50;25.00;83.10
6556;DHT22;3311;48.32423000;14.29074500;2023-07-13T08:28:18;25.00;82.90
6556;DHT22;3311;48.32423000;14.29074500;2023-07-13T08:30:47;25.00;82.80
6556;DHT22;3311;48.32423000;14.29074500;2023-07-13T08:33:15;25.00;83.00
6556;DHT22;3311;48.32423000;14.29074500;2023-07-13T08:35:45;24.90;82.90
6556;DHT22;3311;48.32423000;14.29074500;2023-07-13T08:38:12;25.00;82.80
6556;DHT22;3311;48.32423000;14.29074500;2023-07-13T08:40:40;25.90;83.30
6556;DHT22;3311;48.32423000;14.29074500;2023-07-13T08:43:12;25.00;82.50
6556;DHT22;3311;48.32423000;14.29074500;2023-07-13T08:45:43;25.00;82.50
6556;DHT22;3311;48.32423000;14.29074500;2023-07-13T08:48:17;24.90;82.40
6556;DHT22;3311;48.32423000;14.29074500;2023-07-13T08:50:51;24.90;82.20
6556;DHT22;3311;48.32423000;14.29074500;2023-07-13T08:53:20;24.90;82.40
6556;DHT22;3311;48.32423000;14.29074500;2023-07-13T08:55:52;24.90;82.20
6556;DHT22;3311;48.32423000;14.29074500;2023-07-13T08:58:24;24.90;82.00
6556;DHT22;3311;48.32423000;14.29074500;2023-07-13T09:01:01;24.90;82.00
6556;DHT22;3311;48.32423000;14.29074500;2023-07-13T09:03:37;25.00;82.00
6556;DHT22;3311;48.32423000;14.29074500;2023-07-13T09:06:10;25.00;82.00
6556;DHT22;3311;48.32423000;14.29074500;2023-07-13T09:08:48;25.00;81.90
6556;DHT22;3311;48.32423000;14.29074500;2023-07-13T09:11:27;25.10;81.30
6556;DHT22;3311;48.32423000;14.29074500;2023-07-13T09:14:01;25.10;81.50
6556;DHT22;3311;48.32423000;14.29074500;2023-07-13T09:16:33;25.10;81.50
6556;DHT22;3311;48.32423000;14.29074500;2023-07-13T09:19:05;25.10;81.20
6556;DHT22;3311;48.32423000;14.29074500;2023-07-13T09:21:37;25.10;81.30
6556;DHT22;3311;48.32423000;14.29074500;2023-07-13T09:24:32;25.20;81.10
6556;DHT22;3311;48.32423000;14.29074500;2023-07-13T09:27:08;25.20;80.70
6556;DHT22;3311;48.32423000;14.29074500;2023-07-13T09:29:38;25.30;80.40
6556;DHT22;3311;48.32423000;14.29074500;2023-07-13T09:32:11;25.20;80.20
6556;DHT22;3311;48.32423000;14.29074500;2023-07-13T09:34:41;25.20;80.40
6556;DHT22;3311;48.32423000;14.29074500;2023-07-13T09:37:09;25.20;80.60
6556;DHT22;3311;48.32423000;14.29074500;2023-07-13T09:39:39;25.20;80.20
6556;DHT22;3311;48.32423000;14.29074500;2023-07-13T09:42:15;25.30;80.20
6556;DHT22;3311;48.32423000;14.29074500;2023-07-13T09:44:52;25.30;80.00
6556;DHT22;3311;48.32423000;14.29074500;2023-07-13T09:47:23;25.30;79.90
6556;DHT22;3311;48.32423000;14.29074500;2023-07-13T09:49:59;25.30;80.00
6556;DHT22;3311;48.32423000;14.29074500;2023-07-13T09:52:28;25.40;79.80
6556;DHT22;3311;48.32423000;14.29074500;2023-07-13T09:55:24;25.30;79.40
6556;DHT22;3311;48.32423000;14.29074500;2023-07-13T09:57:52;25.40;79.30
6556;DHT22;3311;48.32423000;14.29074500;2023-07-13T10:00:23;25.30;79.10
6556;DHT22;3311;48.32423000;14.29074500;2023-07-13T10:03:03;25.40;79.40
6556;DHT22;3311;48.32423000;14.29074500;2023-07-13T10:05:43;25.40;79.10
6556;DHT22;3311;48.32423000;14.29074500;2023-07-13T10:08:26;25.40;79.00
6556;DHT22;3311;48.32423000;14.29074500;2023-07-13T10:10:58;25.40;78.90
6556;DHT22;3311;48.32423000;14.29074500;2023-07-13T10:13:35;25.40;78.80
6556;DHT22;3311;48.32423000;14.29074500;2023-07-13T10:16:04;25.40;78.80
6556;DHT22;3311;48.32423000;14.29074500;2023-07-13T10:18:39;25.50;79.00
6556;DHT22;3311;48.32423000;14.29074500;2023-07-13T10:21:16;25.50;78.80
6556;DHT22;3311;48.32423000;14.29074500;2023-07-13T10:23:49;25.40;78.70
6556;DHT22;3311;48.32423000;14.29074500;2023-07-13T10:26:21;25.50;78.80
6556;DHT22;3311;48.32423000;14.29074500;2023-07-13T10:28:52;25.50;78.80
6556;DHT22;3311;48.32423000;14.29074500;2023-07-13T10:31:23;25.50;78.60
6556;DHT22;3311;48.32423000;14.29074500;2023-07-13T10:33:50;25.50;78.40
6556;DHT22;3311;48.32423000;14.29074500;2023-07-13T10:36:28;25.60;78.00
6556;DHT22;3311;48.32423000;14.29074500;2023-07-13T10:38:59;25.60;77.80
6556;DHT22;3311;48.32423000;14.29074500;2023-07-13T10:41:30;25.60;77.90
6556;DHT22;3311;48.32423000;14.29074500;2023-07-13T10:43:59;25.60;77.70
6556;DHT22;3311;48.32423000;14.29074500;2023-07-13T10:46:28;25.60;77.70
6556;DHT22;3311;48.32423000;14.29074500;2023-07-13T10:48:59;25.60;77.70
6556;DHT22;3311;48.32423000;14.29074500;2023-07-13T10:51:30;25.60;77.60
6556;DHT22;3311;48.32423000;14.29074500;2023-07-13T10:54:19;25.50;77.50
6556;DHT22;3311;48.32423000;14.29074500;2023-07-13T10:56:53;25.50;77.60
6556;DHT22;3311;48.32423000;14.29074500;2023-07-13T10:59:35;25.50;77.30
6556;DHT22;3311;48.32423000;14.29074500;2023-07-13T11:02:11;25.50;77.60
6556;DHT22;3311;48.32423000;14.29074500;2023-07-13T11:04:42;25.50;77.30
6556;DHT22;3311;48.32423000;14.29074500;2023-07-13T11:07:26;25.60;77.20
6556;DHT22;3311;48.32423000;14.29074500;2023-07-13T11:09:55;25.60;77.20
6556;DHT22;3311;48.32423000;14.29074500;2023-07-13T11:12:51;25.60;76.80
6556;DHT22;3311;48.32423000;14.29074500;2023-07-13T11:15:32;25.60;76.70
6556;DHT22;3311;48.32423000;14.29074500;2023-07-13T11:18:03;25.60;76.70
6556;DHT22;3311;48.32423000;14.29074500;2023-07-13T11:20:34;25.60;76.60
6556;DHT22;3311;48.32423000;14.29074500;2023-07-13T11:23:21;25.60;76.60
6556;DHT22;3311;48.32423000;14.29074500;2023-07-13T11:25:53;25.60;76.40
6556;DHT22;3311;48.32423000;14.29074500;2023-07-13T11:28:26;25.60;76.40
6556;DHT22;3311;48.32423000;14.29074500;2023-07-13T11:31:12;25.60;76.20
6556;DHT22;3311;48.32423000;14.29074500;2023-07-13T11:33:56;25.60;76.00
6556;DHT22;3311;48.32423000;14.29074500;2023-07-13T11:36:30;25.60;76.10
6556;DHT22;3311;48.32423000;14.29074500;2023-07-13T11:39:03;25.60;75.90
6556;DHT22;3311;48.32423000;14.29074500;2023-07-13T11:41:36;25.60;75.60
6556;DHT22;3311;48.32423000;14.29074500;2023-07-13T11:44:12;25.70;75.60
6556;DHT22;3311;48.32423000;14.29074500;2023-07-13T11:46:45;25.70;75.60
6556;DHT22;3311;48.32423000;14.29074500;2023-07-13T11:49:16;25.70;75.50
6556;DHT22;3311;48.32423000;14.29074500;2023-07-13T11:51:44;25.70;75.40
6556;DHT22;3311;48.32423000;14.29074500;2023-07-13T11:54:25;25.80;75.40
6556;DHT22;3311;48.32423000;14.29074500;2023-07-13T11:56:55;25.80;75.30
6556;DHT22;3311;48.32423000;14.29074500;2023-07-13T11:59:26;25.80;75.20
6556;DHT22;3311;48.32423000;14.29074500;2023-07-13T12:01:54;25.80;75.20
6556;DHT22;3311;48.32423000;14.29074500;2023-07-13T12:04:25;25.80;75.10
6556;DHT22;3311;48.32423000;14.29074500;2023-07-13T12:07:03;25.80;74.90
6556;DHT22;3311;48.32423000;14.29074500;2023-07-13T12:09:34;25.80;74.80
6556;DHT22;3311;48.32423000;14.29074500;2023-07-13T12:12:08;25.80;74.70
6556;DHT22;3311;48.32423000;14.29074500;2023-07-13T12:14:37;25.80;74.70
6556;DHT22;3311;48.32423000;14.29074500;2023-07-13T12:17:09;25.80;74.70
6556;DHT22;3311;48.32423000;14.29074500;2023-07-13T12:19:38;25.70;74.60
6556;DHT22;3311;48.32423000;14.29074500;2023-07-13T12:22:12;25.70;74.50
6556;DHT22;3311;48.32423000;14.29074500;2023-07-13T12:24:42;25.70;74.40
6556;DHT22;3311;48.32423000;14.29074500;2023-07-13T12:27:18;25.70;74.30
6556;DHT22;3311;48.32423000;14.29074500;2023-07-13T12:29:51;25.70;74.10
6556;DHT22;3311;48.32423000;14.29074500;2023-07-13T12:32:20;25.70;73.80
6556;DHT22;3311;48.32423000;14.29074500;2023-07-13T12:34:52;25.80;73.70
6556;DHT22;3311;48.32423000;14.29074500;2023-07-13T12:37:20;25.80;73.50
6556;DHT22;3311;48.32423000;14.29074500;2023-07-13T12:39:49;25.80;73.40
6556;DHT22;3311;48.32423000;14.29074500;2023-07-13T12:42:22;25.70;73.20
6556;DHT22;3311;48.32423000;14.29074500;2023-07-13T12:44:53;25.70;73.20
6556;DHT22;3311;48.32423000;14.29074500;2023-07-13T12:47:21;25.70;73.10
6556;DHT22;3311;48.32423000;14.29074500;2023-07-13T12:49:50;25.80;72.90
6556;DHT22;3311;48.32423000;14.29074500;2023-07-13T12:52:22;25.80;72.70
6556;DHT22;3311;48.32423000;14.29074500;2023-07-13T12:54:58;25.70;72.40
6556;DHT22;3311;48.32423000;14.29074500;2023-07-13T12:57:26;25.80;72.40
6556;DHT22;3311;48.32423000;14.29074500;2023-07-13T12:59:54;25.80;72.30
6556;DHT22;3311;48.32423000;14.29074500;2023-07-13T13:02:28;25.80;72.20
6556;DHT22;3311;48.32423000;14.29074500;2023-07-13T13:04:56;25.80;72.10
6556;DHT22;3311;48.32423000;14.29074500;2023-07-13T13:07:25;25.80;72.00
6556;DHT22;3311;48.32423000;14.29074500;2023-07-13T13:09:52;25.80;71.80
6556;DHT22;3311;48.32423000;14.29074500;2023-07-13T13:12:22;25.80;71.50
6556;DHT22;3311;48.32423000;14.29074500;2023-07-13T13:14:52;25.80;71.40
6556;DHT22;3311;48.32423000;14.29074500;2023-07-13T13:17:22;25.80;71.90
6556;DHT22;3311;48.32423000;14.29074500;2023-07-13T13:19:50;25.80;71.10
6556;DHT22;3311;48.32423000;14.29074500;2023-07-13T13:22:18;25.80;71.00
6556;DHT22;3311;48.32423000;14.29074500;2023-07-13T13:24:46;25.80;70.90
6556;DHT22;3311;48.32423000;14.29074500;2023-07-13T13:27:18;25.80;70.90
6556;DHT22;3311;48.32423000;14.29074500;2023-07-13T13:29:49;25.80;70.80
6556;DHT22;3311;48.32423000;14.29074500;2023-07-13T13:32:18;25.90;70.80
6556;DHT22;3311;48.32423000;14.29074500;2023-07-13T13:34:46;25.80;70.60
6556;DHT22;3311;48.32423000;14.29074500;2023-07-13T13:37:18;25.80;70.70
6556;DHT22;3311;48.32423000;14.29074500;2023-07-13T13:39:46;25.80;70.70
6556;DHT22;3311;48.32423000;14.29074500;2023-07-13T13:42:14;25.80;70.80
6556;DHT22;3311;48.32423000;14.29074500;2023-07-13T13:44:41;25.80;70.90
6556;DHT22;3311;48.32423000;14.29074500;2023-07-13T13:47:24;25.80;70.90
6556;DHT22;3311;48.32423000;14.29074500;2023-07-13T13:49:55;25.80;70.80